Latest Weather Observations for Mildura

IDN60801

Issued at 6:32 pm EDT Sunday 14 February 2016 (issued every 30 minutes, with the page automatically refreshed every 10 minutes)

About weather observations | Map of weather stations | Latest weather observations for NSW | Other Formats
Station Details ID: 076031 Name: MILDURA AIRPORT Lat: -34.24 Lon: 142.09 Height: 50.0 m
Data from the previous 72 hours. | See also: Recent months at Mildura
Date/Time
EDT
Temp
°C
App
Temp
°C
Dew
Point
Rel
Hum
%
Delta-T
°C
Wind Press
QNH
hPa
Press
MSL
hPa
Rain
since 9 am
mm
Dir
 
Spd
km/h
Gust
km/h
Spd
kts
Gust
kts
14/06:30pm 28.2 23.7 6.9 26 11.4 SSW 20 39 11 21 1011.1 1010.9 0.0
14/06:00pm 28.4 23.8 6.5 25 11.6 SSW 20 35 11 19 1011.0 1010.8 0.0
14/05:30pm 28.1 23.0 6.2 25 11.5 SW 22 37 12 20 1011.0 1010.8 0.0
14/05:00pm 28.7 23.9 5.5 23 12.1 SSW 20 33 11 18 1011.2 1011.0 0.0
14/04:30pm 28.5 23.7 5.4 23 12.0 SSW 20 30 11 16 1011.5 1011.3 0.0
14/04:00pm 27.9 23.1 5.5 24 11.6 SSW 20 37 11 20 1011.7 1011.5 0.0
14/03:30pm 28.2 24.1 6.3 25 11.5 SSW 17 35 9 19 1012.1 1011.9 0.0
14/03:00pm 26.9 22.2 5.2 25 11.1 SW 19 30 10 16 1012.7 1012.5 0.0
14/02:30pm 26.1 21.5 5.7 27 10.5 SSW 19 33 10 18 1013.2 1013.0 0.0
14/02:00pm 25.9 21.2 6.0 28 10.3 SW 20 32 11 17 1013.5 1013.3 0.0
14/01:30pm 26.0 22.2 5.6 27 10.5 SSW 15 30 8 16 1013.7 1013.5 0.0
14/01:00pm 24.3 19.9 6.6 32 9.2 S 19 30 10 16 1014.1 1013.9 0.0
14/12:30pm 24.0 19.8 5.8 31 9.3 SSW 17 28 9 15 1014.4 1014.2 0.0
14/12:00pm 23.4 18.7 6.2 33 8.8 S 20 32 11 17 1014.7 1014.5 0.0
14/11:30am 21.4 16.8 5.7 36 7.9 SSW 19 32 10 17 1015.0 1014.8 0.0
14/11:00am 20.4 16.0 6.7 41 6.9 S 19 32 10 17 1015.2 1015.0 0.0
14/10:30am 19.3 16.7 9.2 52 5.3 SSW 13 22 7 12 1015.5 1015.3 0.0
14/10:00am 19.0 15.5 8.9 52 5.3 SSW 17 28 9 15 1015.4 1015.2 0.0
14/09:30am 19.0 16.0 9.2 53 5.2 S 15 28 8 15 1015.4 1015.2 0.0
14/09:00am 18.1 14.5 10.0 59 4.3 S 19 26 10 14 1014.9 1014.7 0.0
14/08:30am 17.9 14.7 10.0 60 4.2 S 17 24 9 13 1014.4 1014.2 0.0
14/08:00am 17.7 14.8 11.0 65 3.6 S 17 26 9 14 1013.7 1013.5 0.0
14/07:30am 17.8 15.2 10.7 63 3.8 S 15 24 8 13 1013.4 1013.2 0.0
14/07:00am 18.1 15.3 11.2 64 3.8 SSW 17 26 9 14 1013.0 1012.8 0.0
14/06:30am 18.5 15.5 11.8 65 3.7 S 19 30 10 16 1012.1 1011.9 0.0
14/06:00am 19.1 15.7 11.2 60 4.3 SSW 20 35 11 19 1011.9 1011.7 0.0
14/05:30am 19.7 17.6 11.2 58 4.7 SW 13 28 7 15 1012.8 1012.6 0.0
14/05:00am 20.0 17.2 11.2 57 4.8 SSW 17 24 9 13 1012.4 1012.2 0.0
14/04:30am 20.2 17.6 11.9 59 4.6 S 17 28 9 15 1010.9 1010.7 0.0
14/04:00am 20.6 17.4 11.8 57 4.9 SSW 20 30 11 16 1011.2 1011.0 0.0
14/03:30am 21.0 18.5 12.4 58 4.9 SSW 17 28 9 15 1011.2 1011.0 0.0
14/03:00am 21.5 18.2 12.9 58 4.9 SSW 22 35 12 19 1011.6 1011.4 0.0
14/02:30am 22.0 19.7 13.1 57 5.1 SSW 17 26 9 14 1011.3 1011.1 0.0
14/02:00am 22.4 20.0 13.7 58 5.1 SSW 19 28 10 15 1011.3 1011.1 0.0
14/01:30am 22.9 19.8 13.4 55 5.5 SSW 22 33 12 18 1011.2 1011.0 0.0
14/01:00am 23.7 20.7 13.6 53 5.9 SSW 22 33 12 18 1011.0 1010.8 0.0
14/12:30am 24.6 21.8 13.2 49 6.6 SSW 20 35 11 19 1010.6 1010.4 0.0
14/12:00am 25.3 22.4 12.2 44 7.5 SSW 19 35 10 19 1010.6 1010.4 0.0
 
Date/Time
EDT
Temp
°C
App
Temp
°C
Dew
Point
Rel
Hum
%
Delta-T
°C
Wind Press
QNH
hPa
Press
MSL
hPa
Rain
since 9 am
mm
Dir
 
Spd
km/h
Gust
km/h
Spd
kts
Gust
kts
13/11:30pm 25.9 22.5 11.3 40 8.3 SW 20 35 11 19 1010.7 1010.5 0.0
13/11:00pm 26.7 23.0 9.5 34 9.5 SSW 19 30 10 16 1010.6 1010.4 0.0
13/10:30pm 27.3 23.8 8.7 31 10.2 SSW 17 24 9 13 1010.3 1010.1 0.0
13/10:00pm 28.2 24.8 9.0 30 10.6 SSW 17 28 9 15 1009.8 1009.6 0.0
13/09:30pm 29.1 25.5 8.2 27 11.4 SSW 17 30 9 16 1009.4 1009.2 0.0
13/09:00pm 30.8 27.5 7.9 24 12.6 S 15 24 8 13 1009.0 1008.8 0.0
13/08:30pm 32.1 27.9 8.4 23 13.2 SSW 20 32 11 17 1008.5 1008.3 0.0
13/08:00pm 34.5 29.9 6.7 18 15.3 SSW 20 30 11 16 1007.9 1007.7 0.0
13/07:30pm 37.1 32.2 1.8 11 18.2 SW 17 28 9 15 1007.5 1007.3 0.0
13/07:00pm 37.8 32.3 -2.1 8 19.5 WSW 17 28 9 15 1007.2 1007.0 0.0
13/06:30pm 38.3 31.9 -1.7 8 19.7 WSW 22 39 12 21 1007.0 1006.8 0.0
13/06:00pm 38.4 31.9 0.0 9 19.4 WSW 24 33 13 18 1007.1 1006.9 0.0
13/05:30pm 38.4 32.5 1.4 10 19.1 W 22 35 12 19 1007.2 1007.0 0.0
13/05:00pm 38.5 32.3 0.0 9 19.5 WSW 22 35 12 19 1007.4 1007.2 0.0
13/04:30pm 38.5 33.1 1.5 10 19.1 WSW 19 30 10 16 1007.4 1007.2 0.0
13/04:00pm 39.3 34.0 2.1 10 19.6 WSW 19 30 10 16 1007.7 1007.5 0.0
13/03:30pm 38.3 32.9 1.3 10 19.1 WSW 19 32 10 17 1008.0 1007.8 0.0
13/03:00pm 38.3 32.9 1.3 10 19.1 WSW 19 30 10 16 1008.4 1008.2 0.0
13/02:30pm 37.1 31.6 0.4 10 18.5 W 19 30 10 16 1008.6 1008.4 0.0
13/02:00pm 36.7 31.1 1.5 11 18.1 W 20 32 11 17 1009.0 1008.8 0.0
13/01:30pm 36.5 31.3 2.5 12 17.7 WNW 19 28 10 15 1009.5 1009.3 0.0
13/01:00pm 35.6 31.0 1.8 12 17.3 WNW 15 22 8 12 1009.9 1009.7 0.0
13/12:30pm 34.8 30.5 3.4 14 16.4 W 15 22 8 12 1010.3 1010.1 0.0
13/12:00pm 34.1 30.1 2.8 14 16.1 WNW 13 20 7 11 1010.7 1010.5 0.0
13/11:30am 33.0 29.2 2.0 14 15.6 W 11 19 6 10 1011.1 1010.9 0.0
13/11:00am 32.2 29.6 3.2 16 14.9 NW 6 11 3 6 1011.1 1010.9 0.0
13/10:30am 31.1 28.5 3.2 17 14.2 S 6 9 3 5 1011.4 1011.2 0.0
13/10:00am 30.0 27.9 3.9 19 13.4 SSE 4 9 2 5 1011.3 1011.1 0.0
13/09:30am 27.9 25.7 5.5 24 11.6 S 6 7 3 4 1011.4 1011.2 0.0
13/09:00am 25.6 23.4 6.3 29 10.0 S 7 9 4 5 1011.4 1011.2 0.0
13/08:30am 23.1 21.1 6.4 34 8.6 SSW 6 9 3 5 1011.3 1011.1 0.0
13/08:00am 20.2 17.6 6.2 40 7.0 SW 9 13 5 7 1011.2 1011.0 0.0
13/07:30am 18.4 15.3 5.6 43 6.3 SW 11 13 6 7 1010.8 1010.6 0.0
13/07:00am 17.2 15.2 6.4 49 5.3 WSW 6 11 3 6 1010.3 1010.1 0.0
13/06:30am 17.9 16.9 5.8 45 5.9 CALM 0 0 0 0 1009.8 1009.6 0.0
13/06:00am 18.0 17.1 5.9 45 5.9 CALM 0 0 0 0 1009.7 1009.5 0.0
13/05:30am 18.3 17.3 5.5 43 6.2 CALM 0 0 0 0 1009.9 1009.7 0.0
13/05:00am 19.3 18.3 5.7 41 6.7 CALM 0 0 0 0 1009.9 1009.7 0.0
13/04:30am 19.8 17.5 4.7 37 7.3 S 6 7 3 4 1010.0 1009.8 0.0
13/04:00am 21.4 18.9 4.9 34 8.1 S 7 9 4 5 1010.0 1009.8 0.0
13/03:30am 22.2 19.7 4.7 32 8.6 S 7 7 4 4 1010.2 1010.0 0.0
13/03:00am 23.5 20.6 4.5 29 9.4 S 9 13 5 7 1010.3 1010.1 0.0
13/02:30am 24.2 20.0 4.0 27 10.0 SSW 15 20 8 11 1010.5 1010.3 0.0
13/02:00am 23.6 19.7 3.5 27 9.8 SSW 13 17 7 9 1010.5 1010.3 0.0
13/01:30am 22.6 20.0 4.2 30 9.0 SW 7 9 4 5 1010.4 1010.2 0.0
13/01:00am 22.4 19.9 4.9 32 8.7 S 7 9 4 5 1010.4 1010.2 0.0
13/12:30am 23.9 21.4 4.8 29 9.6 SSW 7 9 4 5 1010.4 1010.2 0.0
13/12:00am 23.7 21.2 4.6 29 9.5 S 7 9 4 5 1010.4 1010.2 0.0
 
Date/Time
EDT
Temp
°C
App
Temp
°C
Dew
Point
Rel
Hum
%
Delta-T
°C
Wind Press
QNH
hPa
Press
MSL
hPa
Rain
since 9 am
mm
Dir
 
Spd
km/h
Gust
km/h
Spd
kts
Gust
kts
12/11:30pm 24.7 22.2 5.0 28 9.9 S 7 11 4 6 1010.6 1010.4 0.0
12/11:00pm 25.5 23.5 2.2 22 11.2 WSW 2 6 1 3 1010.5 1010.3 0.0
12/10:30pm 26.1 24.9 4.6 25 10.9 CALM 0 0 0 0 1010.5 1010.3 0.0
12/10:00pm 26.7 25.5 4.5 24 11.3 CALM 0 0 0 0 1010.4 1010.2 0.0
12/09:30pm 27.9 26.4 2.9 20 12.4 CALM 0 2 0 1 1010.4 1010.2 0.0
12/09:00pm 29.5 26.8 2.7 18 13.4 W 6 7 3 4 1010.2 1010.0 0.0
12/08:30pm 32.2 29.3 1.3 14 15.3 WSW 6 9 3 5 1010.1 1009.9 0.0
12/08:00pm 34.8 30.9 -1.3 10 17.5 SSW 9 15 5 8 1009.9 1009.7 0.0
12/07:30pm 35.9 32.1 -0.5 10 18.0 SSW 9 13 5 7 1009.8 1009.6 0.0
12/07:00pm 35.8 32.0 -0.5 10 17.9 SSW 9 15 5 8 1009.6 1009.4 0.0
12/06:30pm 36.5 32.2 -1.4 9 18.5 WSW 11 17 6 9 1009.7 1009.5 0.0
12/06:00pm 36.6 32.0 -1.4 9 18.6 NW 13 19 7 10 1009.7 1009.5 0.0
12/05:30pm 36.8 31.8 -1.2 9 18.7 SSW 15 26 8 14 1009.9 1009.7 0.0
12/05:00pm 36.6 31.6 -1.4 9 18.6 WSW 15 26 8 14 1010.0 1009.8 0.0
12/04:30pm 36.9 32.1 0.3 10 18.4 WNW 15 24 8 13 1010.1 1009.9 0.0
12/04:00pm 35.9 31.6 0.9 11 17.7 SSW 13 22 7 12 1010.4 1010.2 0.0
12/03:30pm 36.9 33.7 2.8 12 17.8 WNW 9 22 5 12 1010.9 1010.7 0.0
12/03:00pm 36.3 32.2 2.4 12 17.6 N 13 22 7 12 1011.2 1011.0 0.0
12/02:30pm 35.6 32.4 3.0 13 17.0 NE 9 19 5 10 1011.7 1011.5 0.0
12/02:00pm 34.6 31.6 4.2 15 16.1 N 9 19 5 10 1012.2 1012.0 0.0
12/01:30pm 34.6 32.2 5.1 16 15.8 S 7 15 4 8 1012.6 1012.4 0.0
12/01:00pm 33.1 31.1 8.5 22 13.8 ESE 9 13 5 7 1012.9 1012.7 0.0
12/12:30pm 31.9 30.2 10.0 26 12.5 SSE 9 13 5 7 1013.3 1013.1 0.0
12/12:00pm 30.8 29.0 9.6 27 12.0 E 9 13 5 7 1013.6 1013.4 0.0
12/11:30am 29.2 28.1 10.8 32 10.5 SE 7 13 4 7 1013.8 1013.6 0.0
12/11:00am 27.7 25.5 10.9 35 9.5 SE 13 19 7 10 1013.9 1013.7 0.0
12/10:30am 26.4 23.7 10.5 37 8.9 SE 15 20 8 11 1014.0 1013.8 0.0
12/10:00am 25.2 22.7 11.0 41 8.0 SE 15 20 8 11 1014.2 1014.0 0.0
12/09:30am 24.0 21.1 11.0 44 7.3 SE 17 20 9 11 1014.2 1014.0 0.0
12/09:00am 22.8 20.0 11.2 48 6.5 SE 17 24 9 13 1014.1 1013.9 0.0
12/08:30am 21.0 18.3 10.2 50 5.9 SE 15 22 8 12 1013.9 1013.7 0.0
12/08:00am 20.0 17.5 9.6 51 5.5 SSE 13 20 7 11 1013.9 1013.7 0.0
12/07:30am 18.6 15.9 8.8 53 5.1 S 13 19 7 10 1013.5 1013.3 0.0
12/07:00am 18.2 15.4 8.5 53 5.0 S 13 17 7 9 1013.2 1013.0 0.0
12/06:30am 18.3 16.1 8.0 51 5.3 S 9 13 5 7 1012.9 1012.7 0.0
12/06:00am 18.5 16.2 7.6 49 5.5 S 9 13 5 7 1012.6 1012.4 0.0
12/05:30am 19.1 16.7 6.9 45 6.1 S 9 11 5 6 1012.3 1012.1 0.0
12/05:00am 19.6 17.1 6.7 43 6.5 S 9 13 5 7 1012.1 1011.9 0.0
12/04:30am 20.2 17.6 6.2 40 7.0 S 9 11 5 6 1012.1 1011.9 0.0
12/04:00am 20.2 17.3 4.7 36 7.5 SSW 9 13 5 7 1012.0 1011.8 0.0
12/03:30am 20.8 17.5 4.4 34 8.0 SSW 11 15 6 8 1012.1 1011.9 0.0
12/03:00am 21.1 18.4 3.8 32 8.3 S 7 11 4 6 1012.1 1011.9 0.0
12/02:30am 22.0 19.2 3.2 29 9.0 S 7 13 4 7 1012.2 1012.0 0.0
12/02:00am 22.2 18.6 2.8 28 9.2 SSW 11 13 6 7 1012.5 1012.3 0.0
12/01:30am 23.0 19.0 3.0 27 9.6 SSW 13 19 7 10 1012.7 1012.5 0.0
12/01:00am 23.6 20.5 3.5 27 9.8 SSW 9 11 5 6 1012.7 1012.5 0.0
12/12:30am 23.8 20.7 3.7 27 9.8 SSW 9 11 5 6 1012.8 1012.6 0.0
12/12:00am 24.4 21.8 4.2 27 10.0 S 7 11 4 6 1012.6 1012.4 0.0
 
Date/Time
EDT
Temp
°C
App
Temp
°C
Dew
Point
Rel
Hum
%
Delta-T
°C
Wind Press
QNH
hPa
Press
MSL
hPa
Rain
since 9 am
mm
Dir
 
Spd
km/h
Gust
km/h
Spd
kts
Gust
kts
11/11:30pm 25.4 22.5 4.5 26 10.5 SSE 9 11 5 6 1012.7 1012.5 0.0
11/11:00pm 26.8 23.6 3.3 22 11.7 SSE 9 15 5 8 1012.6 1012.4 0.0
11/10:30pm 26.0 23.0 3.9 24 11.0 SSE 9 11 5 6 1012.4 1012.2 0.0
11/10:00pm 26.8 23.9 4.6 24 11.3 SSE 9 11 5 6 1012.1 1011.9 0.0
11/09:30pm 26.7 24.2 4.5 24 11.2 SE 7 9 4 5 1011.8 1011.6 0.0
11/09:00pm 28.6 25.9 3.5 20 12.7 SSE 7 9 4 5 1011.5 1011.3 0.0
11/08:30pm 31.4 28.4 1.7 15 14.8 SSE 7 11 4 6 1011.3 1011.1 0.0
11/08:00pm 33.1 29.2 1.0 13 16.0 SSE 11 15 6 8 1011.0 1010.8 0.0
11/07:30pm 34.6 30.1 -0.1 11 17.1 SSE 13 19 7 10 1010.7 1010.5 0.0
11/07:00pm 35.2 30.8 0.3 11 17.4 SSE 13 19 7 10 1010.6 1010.4 0.0

Other Formats:

Comma delimited format used in spreadsheet applications
http://www.bom.gov.au/fwo/IDN60801/IDN60801.94693.axf

JavaScript Object Notation format (JSON) in row-major order
http://www.bom.gov.au/fwo/IDN60801/IDN60801.94693.json